createdAt,value
2023-02-27T00:00:03.956Z,-2.32
2023-02-27T00:02:32.175Z,-2.34
2023-02-27T00:05:00.920Z,-2.14
2023-02-27T00:07:28.792Z,-2.08
2023-02-27T00:09:56.256Z,-2.29
2023-02-27T00:12:23.684Z,-2.61
2023-02-27T00:14:51.348Z,-2.36
2023-02-27T00:17:18.783Z,-2.53
2023-02-27T00:19:46.278Z,-2.43
2023-02-27T00:22:15.006Z,-2.33
2023-02-27T00:24:42.418Z,-3.00
2023-02-27T00:27:09.852Z,-2.70
2023-02-27T00:29:38.671Z,-2.35
2023-02-27T00:32:06.220Z,-2.61
2023-02-27T00:34:33.702Z,-2.45
2023-02-27T00:37:01.185Z,-2.69
2023-02-27T00:39:30.512Z,-2.57
2023-02-27T00:41:58.174Z,-2.45
2023-02-27T00:47:28.107Z,-2.60
2023-02-27T00:49:55.547Z,-2.56
2023-02-27T00:52:23.043Z,-2.74
2023-02-27T00:54:51.892Z,-2.47
2023-02-27T01:00:18.568Z,-2.73
2023-02-27T01:02:46.056Z,-2.59
2023-02-27T01:05:14.355Z,-2.41
2023-02-27T01:07:41.838Z,-2.46
2023-02-27T01:10:13.219Z,-2.42
2023-02-27T01:12:40.933Z,-2.41
2023-02-27T01:15:09.983Z,-2.52
2023-02-27T01:20:35.349Z,-2.74
2023-02-27T01:25:52.369Z,-2.87
2023-02-27T01:28:19.856Z,-3.13
2023-02-27T01:30:47.348Z,-3.60
2023-02-27T01:36:09.520Z,-3.79
2023-02-27T01:41:40.360Z,-3.36
2023-02-27T01:44:09.398Z,-3.25
2023-02-27T01:46:38.946Z,-3.42
2023-02-27T01:49:10.881Z,-3.29
2023-02-27T01:54:39.474Z,-3.26
2023-02-27T01:57:08.740Z,-3.35
2023-02-27T02:02:29.479Z,-2.88
2023-02-27T02:04:57.408Z,-2.88
2023-02-27T02:07:26.511Z,-2.95
2023-02-27T02:09:56.419Z,-3.08
2023-02-27T02:15:13.423Z,-3.85
2023-02-27T02:17:48.007Z,-3.77
2023-02-27T02:20:50.528Z,-3.37
2023-02-27T02:23:51.988Z,-3.23
2023-02-27T02:27:03.121Z,-3.32
2023-02-27T02:30:14.818Z,-3.81
2023-02-27T02:33:17.894Z,-3.80
2023-02-27T02:36:24.035Z,-3.81
2023-02-27T02:39:38.788Z,-3.67
2023-02-27T02:42:15.647Z,-3.52
2023-02-27T02:44:50.406Z,-3.39
2023-02-27T02:47:24.223Z,-3.18
2023-02-27T02:52:47.522Z,-3.24
2023-02-27T02:55:20.061Z,-3.36
2023-02-27T02:57:53.754Z,-3.63
2023-02-27T03:00:37.682Z,-3.42
2023-02-27T03:03:09.962Z,-3.41
2023-02-27T03:08:41.934Z,-3.34
2023-02-27T03:11:10.810Z,-3.52
2023-02-27T03:13:41.646Z,-3.18
2023-02-27T03:16:14.237Z,-3.15
2023-02-27T03:18:46.328Z,-3.13
2023-02-27T03:21:16.824Z,-3.03
2023-02-27T03:26:37.665Z,-3.46
2023-02-27T03:29:08.569Z,-3.14
2023-02-27T03:31:41.103Z,-3.24
2023-02-27T03:34:14.376Z,-3.20
2023-02-27T03:36:47.147Z,-3.08
2023-02-27T03:39:24.554Z,-2.97
2023-02-27T03:41:56.218Z,-2.97
2023-02-27T03:44:52.978Z,-2.99
2023-02-27T03:50:23.172Z,-3.59
2023-02-27T03:52:50.922Z,-3.53
2023-02-27T03:55:20.585Z,-3.38
2023-02-27T03:57:50.840Z,-3.29
2023-02-27T04:03:22.035Z,-3.43
2023-02-27T04:05:50.687Z,-3.63
2023-02-27T04:08:36.951Z,-3.58
2023-02-27T04:11:20.255Z,-3.76
2023-02-27T04:13:56.071Z,-3.91
2023-02-27T04:16:36.404Z,-3.70
2023-02-27T04:19:16.529Z,-3.72
2023-02-27T04:21:51.018Z,-3.88
2023-02-27T04:24:28.715Z,-3.83
2023-02-27T04:26:59.013Z,-4.21
2023-02-27T04:29:34.052Z,-4.01
2023-02-27T04:32:05.546Z,-4.01
2023-02-27T04:37:35.981Z,-3.78
2023-02-27T04:40:06.439Z,-3.69
2023-02-27T04:42:36.020Z,-3.58
2023-02-27T04:45:08.285Z,-3.52
2023-02-27T04:47:39.739Z,-3.50
2023-02-27T04:53:14.541Z,-3.46
2023-02-27T04:55:46.185Z,-3.36
2023-02-27T04:58:15.365Z,-3.13
2023-02-27T05:00:47.130Z,-3.14
2023-02-27T05:06:18.884Z,-2.59
2023-02-27T05:08:51.892Z,-2.48
2023-02-27T05:11:24.005Z,-2.30
2023-02-27T05:13:55.541Z,-2.60
2023-02-27T05:19:23.742Z,-2.27
2023-02-27T05:21:56.335Z,-2.14
2023-02-27T05:24:31.341Z,-2.12
2023-02-27T05:27:09.971Z,-2.45
2023-02-27T05:29:43.722Z,-2.32
2023-02-27T05:32:17.237Z,-2.34
2023-02-27T05:37:46.446Z,-2.59
2023-02-27T05:40:18.077Z,-2.74
2023-02-27T05:42:49.999Z,-2.72
2023-02-27T05:45:20.563Z,-2.74
2023-02-27T05:50:53.532Z,-3.05
2023-02-27T05:53:23.499Z,-2.95
2023-02-27T05:55:53.118Z,-3.07
2023-02-27T05:58:24.813Z,-3.01
2023-02-27T06:00:55.141Z,-3.27
2023-02-27T06:06:27.096Z,-3.31
2023-02-27T06:08:56.016Z,-3.51
2023-02-27T06:11:23.461Z,-3.43
2023-02-27T06:13:50.855Z,-3.23
2023-02-27T06:16:18.372Z,-3.17
2023-02-27T06:18:45.854Z,-3.55
2023-02-27T06:21:17.055Z,-3.83
2023-02-27T06:23:44.762Z,-3.58
2023-02-27T06:26:14.216Z,-3.41
2023-02-27T06:28:42.217Z,-3.22
2023-02-27T06:31:09.683Z,-3.18
2023-02-27T06:33:37.285Z,-3.09
2023-02-27T06:36:05.053Z,-3.09
2023-02-27T06:38:33.062Z,-3.05
2023-02-27T06:41:00.590Z,-3.00
2023-02-27T06:46:31.074Z,-2.27
2023-02-27T06:51:57.046Z,-1.69
2023-02-27T06:54:24.614Z,-0.99
2023-02-27T06:56:52.156Z,-0.85
2023-02-27T06:59:19.584Z,-1.14
2023-02-27T07:01:49.021Z,-1.92
2023-02-27T07:04:17.015Z,-1.89
2023-02-27T07:07:34.353Z,-1.82
2023-02-27T07:12:20.997Z,-1.44
2023-02-27T07:14:48.404Z,-0.91
2023-02-27T07:20:18.647Z,-0.90
2023-02-27T07:22:46.170Z,-1.68
2023-02-27T07:25:13.820Z,-1.44
2023-02-27T07:27:41.270Z,-0.90
2023-02-27T07:32:57.061Z,2.01
2023-02-27T07:35:25.965Z,3.39
2023-02-27T07:37:53.448Z,4.17
2023-02-27T07:40:21.063Z,3.82
2023-02-27T07:45:47.052Z,3.11
2023-02-27T07:48:14.858Z,2.84
2023-02-27T07:50:43.644Z,2.75
2023-02-27T07:53:12.682Z,2.57
2023-02-27T07:55:40.258Z,2.37
2023-02-27T07:58:07.695Z,2.04
2023-02-27T08:00:35.158Z,2.23
2023-02-27T08:03:02.666Z,2.70
2023-02-27T08:05:30.156Z,3.38
2023-02-27T08:07:59.094Z,3.93
2023-02-27T08:10:26.578Z,4.25
2023-02-27T08:15:54.092Z,4.63
2023-02-27T08:18:21.588Z,4.36
2023-02-27T08:20:49.265Z,4.12
2023-02-27T08:23:18.043Z,3.53
2023-02-27T08:25:45.578Z,3.56
2023-02-27T08:31:16.256Z,3.56
2023-02-27T08:33:43.840Z,3.53
2023-02-27T08:36:11.343Z,3.84
2023-02-27T08:38:40.106Z,3.90
2023-02-27T08:41:07.556Z,4.02
2023-02-27T08:43:35.006Z,4.16
2023-02-27T08:46:02.468Z,4.36
2023-02-27T08:51:25.703Z,4.32
2023-02-27T08:56:57.306Z,4.56
2023-02-27T08:59:38.642Z,4.50
2023-02-27T09:02:33.710Z,4.80
2023-02-27T09:05:21.634Z,5.03
2023-02-27T09:08:09.651Z,4.78
2023-02-27T09:10:57.668Z,4.96
2023-02-27T09:16:45.773Z,5.30
2023-02-27T09:19:33.643Z,5.22
2023-02-27T09:22:14.748Z,5.43
2023-02-27T09:43:39.679Z,5.63
2023-02-27T09:52:33.640Z,5.74
2023-02-27T09:55:01.229Z,5.40
2023-02-27T09:57:43.717Z,5.54
2023-02-27T10:00:45.728Z,5.25
2023-02-27T10:03:49.645Z,5.47
2023-02-27T10:06:26.832Z,5.63
2023-02-27T10:09:19.656Z,5.72
2023-02-27T10:12:27.644Z,6.12
2023-02-27T10:15:06.639Z,5.62
2023-02-27T10:17:37.716Z,6.19
2023-02-27T10:20:10.620Z,6.45
2023-02-27T10:22:41.899Z,6.36
2023-02-27T10:25:29.830Z,6.32
2023-02-27T10:28:03.563Z,6.63
2023-02-27T10:33:56.661Z,6.23
2023-02-27T10:36:34.545Z,5.79
2023-02-27T10:39:06.565Z,6.19
2023-02-27T10:44:36.992Z,6.06
2023-02-27T10:47:17.660Z,6.24
2023-02-27T10:50:00.290Z,5.93
2023-02-27T10:52:47.665Z,6.73
2023-02-27T10:58:55.624Z,6.88
2023-02-27T11:04:54.693Z,7.18
2023-02-27T11:07:44.633Z,7.20
2023-02-27T11:10:34.673Z,7.07
2023-02-27T11:47:55.210Z,6.47
2023-02-27T12:09:40.876Z,6.78
2023-02-27T12:27:15.425Z,6.99
2023-02-27T12:29:46.590Z,7.34
2023-02-27T12:32:18.639Z,7.57
2023-02-27T12:34:49.366Z,7.29
2023-02-27T12:37:22.687Z,7.29
2023-02-27T12:39:50.139Z,6.59
2023-02-27T12:42:49.683Z,6.73
2023-02-27T12:45:29.459Z,6.14
2023-02-27T12:48:06.375Z,6.41
2023-02-27T12:50:44.444Z,6.57
2023-02-27T12:53:25.302Z,6.93
2023-02-27T12:55:56.181Z,6.51
2023-02-27T12:58:34.689Z,6.75
2023-02-27T13:01:03.754Z,6.95
2023-02-27T13:03:35.478Z,7.34
2023-02-27T13:06:07.992Z,7.11
2023-02-27T13:11:26.730Z,6.84
2023-02-27T13:13:59.524Z,6.66
2023-02-27T13:16:30.953Z,6.50
2023-02-27T13:19:02.444Z,6.18
2023-02-27T13:21:32.730Z,6.04
2023-02-27T13:24:13.236Z,5.21
2023-02-27T13:26:46.644Z,5.52
2023-02-27T13:29:17.556Z,5.19
2023-02-27T13:31:50.847Z,5.71
2023-02-27T13:34:23.138Z,6.43
2023-02-27T13:36:52.735Z,6.99
2023-02-27T13:39:52.489Z,7.43
2023-02-27T13:43:01.851Z,7.54
2023-02-27T13:45:31.892Z,7.38
2023-02-27T13:48:00.836Z,6.66
2023-02-27T13:50:53.310Z,6.98
2023-02-27T13:56:22.853Z,7.35
2023-02-27T13:58:51.386Z,7.26
2023-02-27T14:01:24.538Z,7.73
2023-02-27T14:03:59.374Z,8.09
2023-02-27T14:06:29.455Z,7.90
2023-02-27T14:09:12.901Z,7.82
2023-02-27T14:11:53.302Z,8.48
2023-02-27T14:17:44.678Z,9.41
2023-02-27T14:23:21.673Z,9.46
2023-02-27T14:25:52.936Z,9.74
2023-02-27T14:28:26.083Z,10.21
2023-02-27T14:30:55.449Z,9.38
2023-02-27T14:33:39.191Z,8.66
2023-02-27T14:36:09.873Z,8.31
2023-02-27T14:41:41.792Z,9.17
2023-02-27T14:44:19.294Z,8.65
2023-02-27T14:46:47.075Z,8.52
2023-02-27T14:49:20.136Z,8.71
2023-02-27T14:54:45.028Z,8.76
2023-02-27T14:57:17.978Z,8.07
2023-02-27T14:59:46.939Z,7.94
2023-02-27T15:02:19.759Z,7.39
2023-02-27T15:04:47.498Z,7.47
2023-02-27T15:10:25.213Z,7.84
2023-02-27T15:12:53.998Z,7.38
2023-02-27T15:15:22.192Z,6.86
2023-02-27T15:20:58.313Z,6.50
2023-02-27T15:23:27.367Z,6.21
2023-02-27T15:25:56.699Z,5.99
2023-02-27T15:28:28.529Z,5.82
2023-02-27T15:30:57.310Z,5.91
2023-02-27T15:33:29.130Z,5.72
2023-02-27T15:35:57.280Z,5.78
2023-02-27T15:41:28.797Z,5.32
2023-02-27T15:47:00.396Z,6.03
2023-02-27T15:49:27.861Z,5.86
2023-02-27T15:52:00.566Z,6.10
2023-02-27T15:54:32.817Z,6.03
2023-02-27T15:57:00.713Z,5.91
2023-02-27T15:59:29.561Z,6.01
2023-02-27T16:01:57.001Z,6.02
2023-02-27T16:07:22.388Z,5.64
2023-02-27T16:09:52.056Z,5.64
2023-02-27T16:12:28.801Z,5.76
2023-02-27T16:15:18.370Z,5.16
2023-02-27T16:17:54.406Z,5.58
2023-02-27T16:20:37.722Z,5.61
2023-02-27T16:23:15.736Z,5.06
2023-02-27T16:25:47.588Z,5.37
2023-02-27T16:28:15.879Z,5.10
2023-02-27T16:33:42.639Z,5.37
2023-02-27T16:36:18.526Z,5.11
2023-02-27T16:38:47.911Z,5.44
2023-02-27T16:41:16.788Z,5.56
2023-02-27T16:43:46.141Z,5.15
2023-02-27T16:46:16.525Z,5.14
2023-02-27T16:48:44.095Z,5.24
2023-02-27T16:51:17.471Z,5.16
2023-02-27T16:56:38.513Z,4.58
2023-02-27T16:59:06.480Z,4.37
2023-02-27T17:01:34.533Z,4.51
2023-02-27T17:04:02.533Z,4.05
2023-02-27T17:09:19.010Z,3.89
2023-02-27T17:11:47.815Z,3.90
2023-02-27T17:14:16.046Z,3.72
2023-02-27T17:16:43.536Z,3.68
2023-02-27T17:19:11.051Z,3.57
2023-02-27T17:21:38.489Z,3.73
2023-02-27T17:24:06.956Z,3.59
2023-02-27T17:26:34.657Z,3.75
2023-02-27T17:29:05.115Z,3.63
2023-02-27T17:31:32.890Z,3.59
2023-02-27T17:34:02.958Z,3.44
2023-02-27T17:36:30.757Z,3.58
2023-02-27T17:39:00.524Z,3.76
2023-02-27T17:41:28.689Z,3.80
2023-02-27T17:43:57.452Z,3.95
2023-02-27T17:46:28.060Z,4.11
2023-02-27T17:51:52.534Z,4.16
2023-02-27T17:54:19.991Z,4.19
2023-02-27T17:56:47.431Z,4.10
2023-02-27T17:59:14.866Z,3.86
2023-02-27T18:01:43.685Z,3.96
2023-02-27T18:04:12.626Z,3.86
2023-02-27T18:06:40.228Z,3.95
2023-02-27T18:09:07.657Z,3.80
2023-02-27T18:14:36.275Z,3.28
2023-02-27T18:17:06.680Z,3.41
2023-02-27T18:19:34.110Z,3.44
2023-02-27T18:22:01.548Z,3.36
2023-02-27T18:24:28.961Z,3.39
2023-02-27T18:26:56.497Z,3.42
2023-02-27T18:29:23.976Z,3.38
2023-02-27T18:31:53.546Z,3.22
2023-02-27T18:34:22.897Z,3.33
2023-02-27T18:36:51.737Z,3.21
2023-02-27T18:42:22.134Z,3.35
2023-02-27T18:44:49.692Z,3.34
2023-02-27T18:47:17.266Z,3.32
2023-02-27T18:49:46.034Z,3.24
2023-02-27T18:55:08.222Z,3.15
2023-02-27T19:00:37.946Z,2.43
2023-02-27T19:03:06.190Z,2.19
2023-02-27T19:05:40.757Z,2.28
2023-02-27T19:08:08.211Z,2.21
2023-02-27T19:13:34.058Z,2.14
2023-02-27T19:16:05.499Z,2.00
2023-02-27T19:18:32.979Z,1.85
2023-02-27T19:21:04.901Z,2.02
2023-02-27T19:23:32.389Z,2.06
2023-02-27T19:25:59.986Z,2.13
2023-02-27T19:28:27.579Z,2.11
2023-02-27T19:30:55.091Z,2.09
2023-02-27T19:33:22.556Z,2.06
2023-02-27T19:35:50.089Z,1.24
2023-02-27T19:38:18.867Z,1.69
2023-02-27T19:40:46.336Z,1.83
2023-02-27T19:43:15.177Z,1.96
2023-02-27T19:45:42.756Z,1.92
2023-02-27T19:50:58.984Z,2.12
2023-02-27T19:53:27.916Z,2.30
2023-02-27T19:55:59.230Z,2.42
2023-02-27T19:58:26.669Z,2.60
2023-02-27T20:00:54.222Z,2.65
2023-02-27T20:03:21.867Z,2.76
2023-02-27T20:05:49.312Z,2.88
2023-02-27T20:08:17.885Z,2.95
2023-02-27T20:10:55.672Z,3.03
2023-02-27T20:13:23.138Z,3.06
2023-02-27T20:15:56.815Z,3.11
2023-02-27T20:18:24.630Z,3.13
2023-02-27T20:20:59.794Z,3.14
2023-02-27T20:26:33.286Z,3.07
2023-02-27T20:29:03.105Z,3.10
2023-02-27T20:31:33.111Z,3.11
2023-02-27T20:34:01.131Z,3.04
2023-02-27T20:36:29.141Z,2.92
2023-02-27T20:38:56.684Z,2.61
2023-02-27T20:41:27.556Z,2.55
2023-02-27T20:43:58.476Z,2.50
2023-02-27T20:46:28.451Z,2.42
2023-02-27T20:48:57.417Z,2.30
2023-02-27T20:51:26.699Z,2.15
2023-02-27T20:53:56.350Z,2.02
2023-02-27T20:56:25.500Z,1.75
2023-02-27T20:58:53.124Z,1.44
2023-02-27T21:04:10.506Z,1.21
2023-02-27T21:06:38.013Z,1.10
2023-02-27T21:09:06.990Z,1.12
2023-02-27T21:11:34.876Z,1.18
2023-02-27T21:14:05.532Z,0.99
2023-02-27T21:16:33.503Z,0.79
2023-02-27T21:21:51.310Z,0.64
2023-02-27T21:24:18.787Z,0.62
2023-02-27T21:26:46.235Z,-0.38
2023-02-27T21:29:14.954Z,-0.38
2023-02-27T21:31:45.039Z,-0.09
2023-02-27T21:37:10.477Z,-0.14
2023-02-27T21:42:40.991Z,-0.08
2023-02-27T21:45:09.444Z,-0.14
2023-02-27T21:47:36.865Z,-0.19
2023-02-27T21:50:13.977Z,-0.42
2023-02-27T21:52:43.548Z,-0.43
2023-02-27T21:55:12.031Z,-0.32
2023-02-27T21:57:40.547Z,-0.43
2023-02-27T22:00:12.167Z,-0.46
2023-02-27T22:05:35.982Z,-0.21
2023-02-27T22:08:05.110Z,-0.18
2023-02-27T22:10:35.907Z,-0.25
2023-02-27T22:13:03.413Z,-0.41
2023-02-27T22:15:30.861Z,-0.48
2023-02-27T22:17:58.299Z,-0.50
2023-02-27T22:23:17.777Z,-0.65
2023-02-27T22:28:48.193Z,-0.68
2023-02-27T22:31:19.975Z,-0.76
2023-02-27T22:33:52.472Z,-0.78
2023-02-27T22:36:33.732Z,-0.77
2023-02-27T22:39:02.709Z,-0.65
2023-02-27T22:44:32.949Z,-0.86
2023-02-27T22:47:00.363Z,-1.17
2023-02-27T22:49:27.877Z,-1.04
2023-02-27T22:51:55.376Z,-1.01
2023-02-27T22:54:24.309Z,-1.02
2023-02-27T22:56:53.079Z,-1.08
2023-02-27T22:59:20.615Z,-1.32
2023-02-27T23:01:48.937Z,-1.27
2023-02-27T23:07:04.965Z,-1.57
2023-02-27T23:09:33.741Z,-1.68
2023-02-27T23:12:03.494Z,-1.95
2023-02-27T23:17:22.008Z,-1.74
2023-02-27T23:19:49.738Z,-1.65
2023-02-27T23:22:17.428Z,-1.65
2023-02-27T23:24:47.147Z,-1.77
2023-02-27T23:27:25.494Z,-1.96
2023-02-27T23:29:53.799Z,-1.99
2023-02-27T23:32:21.397Z,-1.92
2023-02-27T23:34:49.925Z,-2.08
2023-02-27T23:37:17.463Z,-2.09
2023-02-27T23:43:02.780Z,-2.63
2023-02-27T23:45:31.680Z,-3.00
2023-02-27T23:48:01.045Z,-2.53
2023-02-27T23:50:30.451Z,-2.21
2023-02-27T23:52:59.058Z,-2.14
2023-02-27T23:55:27.409Z,-1.97
2023-02-27T23:57:57.624Z,-1.89
